Time;durP1;ratioP1;P1;durP2;ratioP2;P2;SDS_P1;SDS_P2;PMS_P1;PMS_P2;Temp;Humidity;BMP_temperature;BMP_pressure;BME280_temperature;BME280_humidity;BME280_pressure;Samples;Min_cycle;Max_cycle;Signal;HPM_P1;HPM_P2
2020/08/02 00:01:52;;;;;;;7;4.8;;;;;;;;;;;;;
2020/08/02 00:04:17;;;;;;;5.2;4.2;;;;;;;;;;;;;
2020/08/02 00:06:42;;;;;;;6.7;4.2;;;;;;;;;;;;;
2020/08/02 00:09:07;;;;;;;7.8;3.9;;;;;;;;;;;;;
2020/08/02 00:11:34;;;;;;;6.8;4.4;;;;;;;;;;;;;
2020/08/02 00:13:59;;;;;;;5.7;4.4;;;;;;;;;;;;;
2020/08/02 00:16:24;;;;;;;5.7;4.3;;;;;;;;;;;;;
2020/08/02 00:18:51;;;;;;;5.9;4.4;;;;;;;;;;;;;
2020/08/02 00:21:16;;;;;;;6.5;4.5;;;;;;;;;;;;;
2020/08/02 00:23:41;;;;;;;6.9;4.8;;;;;;;;;;;;;
2020/08/02 00:26:07;;;;;;;6.8;5.1;;;;;;;;;;;;;
2020/08/02 00:28:32;;;;;;;7.8;4.6;;;;;;;;;;;;;
2020/08/02 00:30:58;;;;;;;6.3;4.7;;;;;;;;;;;;;
2020/08/02 00:33:24;;;;;;;6.3;4.8;;;;;;;;;;;;;
2020/08/02 00:35:49;;;;;;;5.7;4.7;;;;;;;;;;;;;
2020/08/02 00:38:14;;;;;;;5.3;4.8;;;;;;;;;;;;;
2020/08/02 00:40:39;;;;;;;5.4;4.7;;;;;;;;;;;;;
2020/08/02 00:43:04;;;;;;;7.6;5.1;;;;;;;;;;;;;
2020/08/02 00:45:33;;;;;;;6.1;5.1;;;;;;;;;;;;;
2020/08/02 00:47:58;;;;;;;6;4.6;;;;;;;;;;;;;
2020/08/02 00:50:24;;;;;;;6.3;4.9;;;;;;;;;;;;;
2020/08/02 00:52:50;;;;;;;5.8;4.8;;;;;;;;;;;;;
2020/08/02 00:55:15;;;;;;;7.4;4.8;;;;;;;;;;;;;
2020/08/02 00:57:41;;;;;;;8.4;5;;;;;;;;;;;;;
2020/08/02 01:00:07;;;;;;;6.6;4.9;;;;;;;;;;;;;
2020/08/02 01:02:33;;;;;;;6.1;5.2;;;;;;;;;;;;;
2020/08/02 01:04:58;;;;;;;7.5;5;;;;;;;;;;;;;
2020/08/02 01:07:23;;;;;;;8.3;4.8;;;;;;;;;;;;;
2020/08/02 01:09:49;;;;;;;7;4.9;;;;;;;;;;;;;
2020/08/02 01:12:14;;;;;;;6.9;4.8;;;;;;;;;;;;;
2020/08/02 01:14:40;;;;;;;8.2;4.2;;;;;;;;;;;;;
2020/08/02 01:17:05;;;;;;;4.9;4.2;;;;;;;;;;;;;
2020/08/02 01:19:31;;;;;;;6;4.5;;;;;;;;;;;;;
2020/08/02 01:21:56;;;;;;;7.1;4.7;;;;;;;;;;;;;
2020/08/02 01:24:21;;;;;;;5.5;4.2;;;;;;;;;;;;;
2020/08/02 01:26:49;;;;;;;5.4;4.4;;;;;;;;;;;;;
2020/08/02 01:29:14;;;;;;;6.5;5;;;;;;;;;;;;;
2020/08/02 01:31:43;;;;;;;6.3;4.7;;;;;;;;;;;;;
2020/08/02 01:34:08;;;;;;;4.9;4.4;;;;;;;;;;;;;
2020/08/02 01:36:33;;;;;;;4.9;4.4;;;;;;;;;;;;;
2020/08/02 01:38:58;;;;;;;7.5;4.8;;;;;;;;;;;;;
2020/08/02 01:41:23;;;;;;;6.5;4.8;;;;;;;;;;;;;
2020/08/02 01:43:48;;;;;;;6.8;4.9;;;;;;;;;;;;;
2020/08/02 01:46:14;;;;;;;7.2;4.9;;;;;;;;;;;;;
2020/08/02 01:48:39;;;;;;;9.2;5.2;;;;;;;;;;;;;
2020/08/02 01:51:04;;;;;;;7.3;5.6;;;;;;;;;;;;;
2020/08/02 01:53:30;;;;;;;7;5.5;;;;;;;;;;;;;
2020/08/02 01:55:56;;;;;;;6.3;5.1;;;;;;;;;;;;;
2020/08/02 01:58:21;;;;;;;6.3;5.3;;;;;;;;;;;;;
2020/08/02 02:00:46;;;;;;;8.3;5.4;;;;;;;;;;;;;
2020/08/02 02:03:11;;;;;;;6.7;5.1;;;;;;;;;;;;;
2020/08/02 02:05:38;;;;;;;7.7;5.7;;;;;;;;;;;;;
2020/08/02 02:08:04;;;;;;;8.1;5.1;;;;;;;;;;;;;
2020/08/02 02:12:57;;;;;;;9.2;5.5;;;;;;;;;;;;;
2020/08/02 02:15:31;;;;;;;5.6;5;;;;;;;;;;;;;
2020/08/02 02:17:57;;;;;;;5.9;4.9;;;;;;;;;;;;;
2020/08/02 02:20:22;;;;;;;8;5.2;;;;;;;;;;;;;
2020/08/02 02:22:50;;;;;;;7.1;5;;;;;;;;;;;;;
2020/08/02 02:25:15;;;;;;;5.7;5.2;;;;;;;;;;;;;
2020/08/02 02:27:40;;;;;;;7.9;5;;;;;;;;;;;;;
2020/08/02 02:30:06;;;;;;;7.3;4.8;;;;;;;;;;;;;
2020/08/02 02:33:00;;;;;;;8.1;5.2;;;;;;;;;;;;;
2020/08/02 02:35:02;;;;;;;5.6;4.7;;;;;;;;;;;;;
2020/08/02 02:37:26;;;;;;;7.6;4.5;;;;;;;;;;;;;
2020/08/02 02:40:00;;;;;;;5.5;4.6;;;;;;;;;;;;;
2020/08/02 02:42:16;;;;;;;6;4.6;;;;;;;;;;;;;
2020/08/02 02:44:42;;;;;;;7.7;4.5;;;;;;;;;;;;;
2020/08/02 02:47:08;;;;;;;6.1;4.4;;;;;;;;;;;;;
2020/08/02 02:49:33;;;;;;;6;4.4;;;;;;;;;;;;;
2020/08/02 02:51:59;;;;;;;5.6;4.4;;;;;;;;;;;;;
2020/08/02 02:54:24;;;;;;;6.2;4.4;;;;;;;;;;;;;
2020/08/02 02:56:51;;;;;;;6;4.5;;;;;;;;;;;;;
2020/08/02 02:59:16;;;;;;;5.6;4.2;;;;;;;;;;;;;
2020/08/02 03:01:42;;;;;;;6.9;4.6;;;;;;;;;;;;;
2020/08/02 03:04:07;;;;;;;6.8;4.2;;;;;;;;;;;;;
2020/08/02 03:06:32;;;;;;;6.2;4.6;;;;;;;;;;;;;
2020/08/02 03:08:58;;;;;;;6.6;4.4;;;;;;;;;;;;;
2020/08/02 03:11:26;;;;;;;5.7;4.4;;;;;;;;;;;;;
2020/08/02 03:13:51;;;;;;;9.2;4.4;;;;;;;;;;;;;
2020/08/02 03:16:17;;;;;;;10.6;4.8;;;;;;;;;;;;;
2020/08/02 03:18:42;;;;;;;6;4.5;;;;;;;;;;;;;
2020/08/02 03:21:07;;;;;;;5.6;4.7;;;;;;;;;;;;;
2020/08/02 03:23:32;;;;;;;6.6;4.3;;;;;;;;;;;;;
2020/08/02 03:25:58;;;;;;;5.3;4.5;;;;;;;;;;;;;
2020/08/02 03:28:25;;;;;;;6;4.4;;;;;;;;;;;;;
2020/08/02 03:30:52;;;;;;;7.1;4.5;;;;;;;;;;;;;
2020/08/02 03:33:17;;;;;;;5.7;4.4;;;;;;;;;;;;;
2020/08/02 03:35:42;;;;;;;5.5;4.4;;;;;;;;;;;;;
2020/08/02 03:38:07;;;;;;;6.4;4.5;;;;;;;;;;;;;
2020/08/02 03:40:32;;;;;;;5.3;4.3;;;;;;;;;;;;;
2020/08/02 03:42:59;;;;;;;6.3;4.4;;;;;;;;;;;;;
2020/08/02 03:45:26;;;;;;;4.8;4;;;;;;;;;;;;;
2020/08/02 03:47:51;;;;;;;6.1;4.4;;;;;;;;;;;;;
2020/08/02 03:50:19;;;;;;;6.9;4.8;;;;;;;;;;;;;
2020/08/02 03:52:44;;;;;;;6.1;4.6;;;;;;;;;;;;;
2020/08/02 03:55:09;;;;;;;6.5;4.7;;;;;;;;;;;;;
2020/08/02 03:57:34;;;;;;;5.8;4.6;;;;;;;;;;;;;
2020/08/02 04:00:00;;;;;;;6.5;4.5;;;;;;;;;;;;;
2020/08/02 04:02:34;;;;;;;4.8;4.3;;;;;;;19.5;85.22754;937.5916;;;;
2020/08/02 04:05:00;;;;;;;6.7;4.8;;;;;;;19.51;85.41602;937.5697;;;;
2020/08/02 04:07:27;;;;;;;6.2;4.6;;;;;;;19.55;85.05176;937.5865;;;;
2020/08/02 04:12:19;;;;;;;6.5;4.9;;;;;;;;;;;;;
2020/08/02 04:14:45;;;;;;;6.2;4.6;;;;;;;;;;;;;
2020/08/02 04:17:09;;;;;;;7.2;4.9;;;;;;;;;;;;;
2020/08/02 04:19:36;;;;;;;5.5;4.5;;;;;;;;;;;;;
2020/08/02 04:22:01;;;;;;;5.9;4.4;;;;;;;;;;;;;
2020/08/02 04:24:26;;;;;;;8;4.8;;;;;;;;;;;;;
2020/08/02 04:26:53;;;;;;;5.8;4.4;;;;;;;;;;;;;
2020/08/02 04:29:19;;;;;;;7;4.3;;;;;;;;;;;;;
2020/08/02 04:31:44;;;;;;;5.3;4.5;;;;;;;;;;;;;
2020/08/02 04:36:34;;;;;;;6.2;4.3;;;;;;;;;;;;;
2020/08/02 04:39:01;;;;;;;7;4.5;;;;;;;;;;;;;
2020/08/02 04:41:26;;;;;;;5.9;4.2;;;;;;;;;;;;;
2020/08/02 04:43:51;;;;;;;6.9;4.3;;;;;;;;;;;;;
2020/08/02 04:46:20;;;;;;;4.2;3.8;;;;;;;;;;;;;
2020/08/02 04:48:45;;;;;;;6.9;4.4;;;;;;;;;;;;;
2020/08/02 04:51:10;;;;;;;6.9;4.4;;;;;;;;;;;;;
2020/08/02 04:53:39;;;;;;;6.9;4.1;;;;;;;;;;;;;
2020/08/02 04:56:17;;;;;;;5.1;4.3;;;;;;;;;;;;;
2020/08/02 04:58:31;;;;;;;4.9;4.1;;;;;;;;;;;;;
2020/08/02 05:02:07;;;;;;;6.2;4.3;;;;;;;;;;;;;
2020/08/02 05:03:21;;;;;;;4.8;4.3;;;;;;;;;;;;;
2020/08/02 05:06:05;;;;;;;4.8;4.3;;;;;;;;;;;;;
2020/08/02 05:08:33;;;;;;;5.2;4.2;;;;;;;;;;;;;
2020/08/02 05:10:58;;;;;;;7.2;4.5;;;;;;;;;;;;;
2020/08/02 05:13:24;;;;;;;6.6;4.4;;;;;;;;;;;;;
2020/08/02 05:15:49;;;;;;;6.9;4.2;;;;;;;;;;;;;
2020/08/02 05:18:14;;;;;;;6.5;4.1;;;;;;;;;;;;;
2020/08/02 05:20:39;;;;;;;4.7;3.9;;;;;;;;;;;;;
2020/08/02 05:23:06;;;;;;;5.5;3.9;;;;;;;;;;;;;
2020/08/02 05:25:32;;;;;;;8.9;4.3;;;;;;;;;;;;;
2020/08/02 05:28:00;;;;;;;5.9;4.2;;;;;;;;;;;;;
2020/08/02 05:30:28;;;;;;;5.7;4;;;;;;;;;;;;;
2020/08/02 05:32:54;;;;;;;7.4;4.1;;;;;;;;;;;;;
2020/08/02 05:35:19;;;;;;;5.8;3.8;;;;;;;;;;;;;
2020/08/02 05:37:44;;;;;;;5.2;3.9;;;;;;;;;;;;;
2020/08/02 05:40:10;;;;;;;6.2;4.1;;;;;;;;;;;;;
2020/08/02 05:42:35;;;;;;;5.4;4.1;;;;;;;;;;;;;
2020/08/02 05:45:00;;;;;;;9.1;4.3;;;;;;;;;;;;;
2020/08/02 05:47:25;;;;;;;8;4.5;;;;;;;;;;;;;
2020/08/02 05:49:50;;;;;;;4.7;4.3;;;;;;;;;;;;;
2020/08/02 05:52:15;;;;;;;6.1;4.2;;;;;;;;;;;;;
2020/08/02 05:54:40;;;;;;;4.7;4;;;;;;;;;;;;;
2020/08/02 05:58:53;;;;;;;5.4;4;;;;;;;;;;;;;
2020/08/02 06:01:14;;;;;;;9;4.1;;;;;;;;;;;;;
2020/08/02 06:03:19;;;;;;;6.4;4.1;;;;;;;;;;;;;
2020/08/02 06:05:46;;;;;;;4.9;3.9;;;;;;;;;;;;;
2020/08/02 06:08:11;;;;;;;8.8;4.1;;;;;;;;;;;;;
2020/08/02 06:10:40;;;;;;;4.6;4.2;;;;;;;;;;;;;
2020/08/02 06:13:05;;;;;;;6.1;4.1;;;;;;;;;;;;;
2020/08/02 06:15:34;;;;;;;6.5;4.2;;;;;;;;;;;;;
2020/08/02 06:17:59;;;;;;;6;4.1;;;;;;;;;;;;;
2020/08/02 06:20:24;;;;;;;6.5;4;;;;;;;;;;;;;
2020/08/02 06:22:49;;;;;;;5.2;3.9;;;;;;;;;;;;;
2020/08/02 06:25:14;;;;;;;5;3.9;;;;;;;;;;;;;
2020/08/02 06:27:39;;;;;;;4.9;4.1;;;;;;;;;;;;;
2020/08/02 06:30:04;;;;;;;5.4;3.8;;;;;;;;;;;;;
2020/08/02 06:32:29;;;;;;;5.5;3.8;;;;;;;;;;;;;
2020/08/02 06:34:54;;;;;;;5.2;3.8;;;;;;;;;;;;;
2020/08/02 06:37:19;;;;;;;4.1;3.5;;;;;;;;;;;;;
2020/08/02 06:39:45;;;;;;;3.8;3.4;;;;;;;;;;;;;
2020/08/02 06:42:10;;;;;;;5.8;3.9;;;;;;;;;;;;;
2020/08/02 06:44:35;;;;;;;4.8;3.5;;;;;;;;;;;;;
2020/08/02 06:47:00;;;;;;;5.5;3.5;;;;;;;;;;;;;
2020/08/02 06:49:26;;;;;;;4.7;3.3;;;;;;;;;;;;;
2020/08/02 06:51:51;;;;;;;7.2;3.9;;;;;;;;;;;;;
2020/08/02 06:54:16;;;;;;;7.3;3.9;;;;;;;;;;;;;
2020/08/02 06:56:44;;;;;;;4.6;3.5;;;;;;;;;;;;;
2020/08/02 06:59:09;;;;;;;5;3.3;;;;;;;;;;;;;
2020/08/02 07:01:35;;;;;;;6.1;3.8;;;;;;;;;;;;;
2020/08/02 07:04:02;;;;;;;4.6;3.6;;;;;;;;;;;;;
2020/08/02 07:06:30;;;;;;;6.1;3.8;;;;;;;;;;;;;
2020/08/02 07:08:55;;;;;;;5.3;3.5;;;;;;;;;;;;;
2020/08/02 07:11:21;;;;;;;4.9;3.2;;;;;;;;;;;;;
2020/08/02 07:13:46;;;;;;;6.4;3.6;;;;;;;;;;;;;
2020/08/02 07:16:14;;;;;;;4.4;3.7;;;;;;;;;;;;;
2020/08/02 07:18:39;;;;;;;5.3;3.7;;;;;;;;;;;;;
2020/08/02 07:21:05;;;;;;;4.9;3.6;;;;;;;;;;;;;
2020/08/02 07:23:31;;;;;;;6.7;3.8;;;;;;;;;;;;;
2020/08/02 07:25:57;;;;;;;6.5;3.6;;;;;;;;;;;;;
2020/08/02 07:28:22;;;;;;;4.5;3.4;;;;;;;;;;;;;
2020/08/02 07:30:52;;;;;;;5.1;3.4;;;;;;;;;;;;;
2020/08/02 07:33:17;;;;;;;6.5;3.5;;;;;;;;;;;;;
2020/08/02 07:35:43;;;;;;;4.7;3.6;;;;;;;;;;;;;
2020/08/02 07:38:08;;;;;;;4.6;3.7;;;;;;;;;;;;;
2020/08/02 07:40:39;;;;;;;6.2;3.7;;;;;;;;;;;;;
2020/08/02 07:43:04;;;;;;;7;3.9;;;;;;;;;;;;;
2020/08/02 07:45:31;;;;;;;5.5;3.7;;;;;;;;;;;;;
2020/08/02 07:47:56;;;;;;;4.4;3.8;;;;;;;;;;;;;
2020/08/02 07:50:22;;;;;;;6.3;3.9;;;;;;;;;;;;;
2020/08/02 07:52:48;;;;;;;6.6;3.7;;;;;;;;;;;;;
2020/08/02 07:55:13;;;;;;;5.6;3.7;;;;;;;;;;;;;
2020/08/02 07:57:38;;;;;;;5.8;3.9;;;;;;;;;;;;;
2020/08/02 08:00:03;;;;;;;4.8;3.6;;;;;;;;;;;;;
2020/08/02 08:02:28;;;;;;;5.9;3.7;;;;;;;;;;;;;
2020/08/02 08:04:53;;;;;;;4.7;3.7;;;;;;;;;;;;;
2020/08/02 08:07:18;;;;;;;5.1;3.6;;;;;;;;;;;;;
2020/08/02 08:09:44;;;;;;;6.2;3.6;;;;;;;;;;;;;
2020/08/02 08:12:09;;;;;;;4.4;3.6;;;;;;;;;;;;;
2020/08/02 08:14:34;;;;;;;4.9;3.7;;;;;;;;;;;;;
2020/08/02 08:17:00;;;;;;;6.4;3.9;;;;;;;;;;;;;
2020/08/02 08:19:25;;;;;;;5.8;3.9;;;;;;;;;;;;;
2020/08/02 08:21:52;;;;;;;4.1;3.4;;;;;;;;;;;;;
2020/08/02 08:24:17;;;;;;;4.1;3.5;;;;;;;;;;;;;
2020/08/02 08:26:42;;;;;;;5;4;;;;;;;;;;;;;
2020/08/02 08:29:07;;;;;;;5.6;3.6;;;;;;;;;;;;;
2020/08/02 08:31:34;;;;;;;4.3;3.6;;;;;;;;;;;;;
2020/08/02 08:33:59;;;;;;;5.8;3.8;;;;;;;;;;;;;
2020/08/02 08:36:24;;;;;;;4.5;3.5;;;;;;;;;;;;;
2020/08/02 08:38:49;;;;;;;5.2;3.5;;;;;;;;;;;;;
2020/08/02 08:41:14;;;;;;;5.1;3.9;;;;;;;;;;;;;
2020/08/02 08:43:40;;;;;;;5.4;3.4;;;;;;;;;;;;;
2020/08/02 08:46:06;;;;;;;5.3;3.6;;;;;;;;;;;;;
2020/08/02 08:48:32;;;;;;;5.1;3.3;;;;;;;;;;;;;
2020/08/02 08:50:57;;;;;;;7.3;3.7;;;;;;;;;;;;;
2020/08/02 08:53:22;;;;;;;5.1;3.2;;;;;;;;;;;;;
2020/08/02 08:55:47;;;;;;;5.4;3.7;;;;;;;;;;;;;
2020/08/02 08:58:13;;;;;;;5.2;3.4;;;;;;;;;;;;;
2020/08/02 09:00:37;;;;;;;5.6;3.6;;;;;;;;;;;;;
2020/08/02 09:03:04;;;;;;;6.7;3.4;;;;;;;;;;;;;
2020/08/02 09:05:29;;;;;;;6;3.3;;;;;;;;;;;;;
2020/08/02 09:07:54;;;;;;;4;3.6;;;;;;;;;;;;;
2020/08/02 09:10:19;;;;;;;3.9;3.2;;;;;;;;;;;;;
2020/08/02 09:12:44;;;;;;;6.6;3.6;;;;;;;;;;;;;
2020/08/02 09:15:10;;;;;;;5.6;3.1;;;;;;;;;;;;;
2020/08/02 09:17:36;;;;;;;4.6;3.1;;;;;;;;;;;;;
2020/08/02 09:20:01;;;;;;;4.5;3.1;;;;;;;;;;;;;
2020/08/02 09:22:26;;;;;;;5.7;3.5;;;;;;;;;;;;;
2020/08/02 09:24:51;;;;;;;5.9;3.4;;;;;;;;;;;;;
2020/08/02 09:27:16;;;;;;;4.4;3.1;;;;;;;;;;;;;
2020/08/02 09:29:41;;;;;;;4.1;3.4;;;;;;;;;;;;;
2020/08/02 09:32:06;;;;;;;4.2;3.4;;;;;;;;;;;;;
2020/08/02 09:34:31;;;;;;;6.1;3.5;;;;;;;;;;;;;
2020/08/02 09:36:57;;;;;;;5.7;3.2;;;;;;;;;;;;;
2020/08/02 09:39:22;;;;;;;4.3;3.3;;;;;;;;;;;;;
2020/08/02 09:41:47;;;;;;;4.2;3.3;;;;;;;;;;;;;
2020/08/02 09:44:12;;;;;;;4.7;3.4;;;;;;;;;;;;;
2020/08/02 09:46:37;;;;;;;8.5;4;;;;;;;;;;;;;
2020/08/02 09:49:02;;;;;;;5.1;3.5;;;;;;;;;;;;;
2020/08/02 09:51:27;;;;;;;5.3;3.7;;;;;;;;;;;;;
2020/08/02 09:53:52;;;;;;;6.1;3.2;;;;;;;;;;;;;
2020/08/02 09:56:17;;;;;;;4;3.1;;;;;;;;;;;;;
2020/08/02 09:58:42;;;;;;;6.6;3.4;;;;;;;;;;;;;
2020/08/02 10:01:10;;;;;;;4.1;3.3;;;;;;;;;;;;;
2020/08/02 10:03:34;;;;;;;5.4;3.5;;;;;;;;;;;;;
2020/08/02 10:05:59;;;;;;;7.7;3.6;;;;;;;;;;;;;
2020/08/02 10:08:24;;;;;;;5.4;3.4;;;;;;;;;;;;;
2020/08/02 10:10:58;;;;;;;7.6;3.5;;;;;;;;;;;;;
2020/08/02 10:13:23;;;;;;;6.2;3.4;;;;;;;;;;;;;
2020/08/02 10:15:48;;;;;;;8.3;5.1;;;;;;;;;;;;;
2020/08/02 10:18:13;;;;;;;10.9;7.1;;;;;;;;;;;;;
2020/08/02 10:20:39;;;;;;;6.9;5.1;;;;;;;;;;;;;
2020/08/02 10:23:04;;;;;;;4.8;3.9;;;;;;;;;;;;;
2020/08/02 10:25:29;;;;;;;5.4;3.5;;;;;;;;;;;;;
2020/08/02 10:27:54;;;;;;;5.1;3.4;;;;;;;;;;;;;
2020/08/02 10:30:28;;;;;;;4.8;3.4;;;;;;;;;;;;;
2020/08/02 10:32:53;;;;;;;7.1;3.8;;;;;;;;;;;;;
2020/08/02 10:35:23;;;;;;;4.3;3.4;;;;;;;;;;;;;
2020/08/02 10:37:44;;;;;;;4.7;3.4;;;;;;;;;;;;;
2020/08/02 10:40:11;;;;;;;5.2;3.5;;;;;;;;;;;;;
2020/08/02 10:42:36;;;;;;;6.1;3.4;;;;;;;;;;;;;
2020/08/02 10:45:03;;;;;;;4;3.6;;;;;;;;;;;;;
2020/08/02 10:47:27;;;;;;;5.6;4.4;;;;;;;;;;;;;
2020/08/02 10:49:53;;;;;;;5.8;3.9;;;;;;;;;;;;;
2020/08/02 10:52:18;;;;;;;6.3;3.7;;;;;;;;;;;;;
2020/08/02 10:54:45;;;;;;;6.5;3.5;;;;;;;;;;;;;
2020/08/02 10:57:10;;;;;;;6.2;3.6;;;;;;;;;;;;;
2020/08/02 10:59:35;;;;;;;5.1;3.6;;;;;;;;;;;;;
2020/08/02 11:02:00;;;;;;;10.1;7.7;;;;;;;;;;;;;
2020/08/02 11:04:25;;;;;;;7.6;4.9;;;;;;;;;;;;;
2020/08/02 11:06:50;;;;;;;6.5;4.7;;;;;;;;;;;;;
2020/08/02 11:09:16;;;;;;;7.9;4.4;;;;;;;;;;;;;
2020/08/02 11:11:44;;;;;;;3.7;3.2;;;;;;;;;;;;;
2020/08/02 11:14:10;;;;;;;5.7;4;;;;;;;;;;;;;
2020/08/02 11:16:35;;;;;;;5.4;3.5;;;;;;;;;;;;;
2020/08/02 11:19:00;;;;;;;5.6;3.5;;;;;;;;;;;;;
2020/08/02 11:21:25;;;;;;;5.1;3.3;;;;;;;;;;;;;
2020/08/02 11:23:50;;;;;;;4.6;3.6;;;;;;;;;;;;;
2020/08/02 11:26:15;;;;;;;6.7;3.4;;;;;;;;;;;;;
2020/08/02 11:28:41;;;;;;;4.5;3.1;;;;;;;;;;;;;
2020/08/02 11:31:11;;;;;;;4.4;3.4;;;;;;;;;;;;;
2020/08/02 11:33:30;;;;;;;4.3;3.1;;;;;;;;;;;;;
2020/08/02 11:35:59;;;;;;;4.9;3;;;;;;;;;;;;;
2020/08/02 11:38:24;;;;;;;4.2;3.3;;;;;;;;;;;;;
2020/08/02 11:40:58;;;;;;;6.1;3.5;;;;;;;;;;;;;
2020/08/02 11:43:25;;;;;;;6.2;3.3;;;;;;;;;;;;;
2020/08/02 11:45:50;;;;;;;5.7;3.2;;;;;;;;;;;;;
2020/08/02 11:48:18;;;;;;;5.4;3.3;;;;;;;;;;;;;
2020/08/02 11:50:43;;;;;;;4.9;3.1;;;;;;;;;;;;;
2020/08/02 11:53:08;;;;;;;7.6;3.4;;;;;;;;;;;;;
2020/08/02 11:55:36;;;;;;;11.3;3.3;;;;;;;;;;;;;
2020/08/02 11:57:58;;;;;;;7;3.4;;;;;;;;;;;;;
2020/08/02 12:00:32;;;;;;;5.1;3.5;;;;;;;;;;;;;
2020/08/02 12:03:00;;;;;;;4;3.3;;;;;;;;;;;;;
2020/08/02 12:05:25;;;;;;;5.1;3.3;;;;;;;;;;;;;
2020/08/02 12:07:51;;;;;;;5;3.5;;;;;;;;;;;;;
2020/08/02 12:10:16;;;;;;;5.4;3.3;;;;;;;;;;;;;
2020/08/02 12:12:42;;;;;;;4.3;3;;;;;;;;;;;;;
2020/08/02 12:15:07;;;;;;;4.4;3.4;;;;;;;;;;;;;
2020/08/02 12:17:34;;;;;;;5.7;3.4;;;;;;;;;;;;;
2020/08/02 12:19:59;;;;;;;5.6;3.4;;;;;;;;;;;;;
2020/08/02 12:22:25;;;;;;;6.9;3.2;;;;;;;;;;;;;
2020/08/02 12:24:50;;;;;;;4.5;3.4;;;;;;;;;;;;;
2020/08/02 12:27:15;;;;;;;4.4;3.5;;;;;;;;;;;;;
2020/08/02 12:29:41;;;;;;;4.8;3.6;;;;;;;;;;;;;
2020/08/02 12:32:06;;;;;;;5.8;3.6;;;;;;;;;;;;;
2020/08/02 12:34:33;;;;;;;5.5;3.6;;;;;;;;;;;;;
2020/08/02 12:36:58;;;;;;;5.2;3.4;;;;;;;;;;;;;
2020/08/02 12:39:24;;;;;;;4.6;3.5;;;;;;;;;;;;;
2020/08/02 12:41:49;;;;;;;3.6;3.2;;;;;;;;;;;;;
2020/08/02 12:44:16;;;;;;;4.7;3.3;;;;;;;;;;;;;
2020/08/02 12:46:41;;;;;;;5.2;3.6;;;;;;;;;;;;;
2020/08/02 12:49:09;;;;;;;6;3.3;;;;;;;;;;;;;
2020/08/02 12:51:32;;;;;;;5.9;3.5;;;;;;;;;;;;;
2020/08/02 12:53:59;;;;;;;6;3.5;;;;;;;;;;;;;
2020/08/02 12:56:24;;;;;;;5.8;3.5;;;;;;;;;;;;;
2020/08/02 12:58:49;;;;;;;8.8;3.1;;;;;;;;;;;;;
2020/08/02 13:01:16;;;;;;;3.1;2.3;;;;;;;;;;;;;
2020/08/02 13:03:41;;;;;;;4;1.9;;;;;;;;;;;;;
2020/08/02 13:06:06;;;;;;;3.1;1.7;;;;;;;;;;;;;
2020/08/02 13:08:31;;;;;;;3.3;1.4;;;;;;;;;;;;;
2020/08/02 13:11:49;;;;;;;2.9;1.3;;;;;;;;;;;;;
2020/08/02 13:13:27;;;;;;;2.1;1.2;;;;;;;;;;;;;
2020/08/02 13:15:52;;;;;;;2.3;1.4;;;;;;;;;;;;;
2020/08/02 13:18:19;;;;;;;2.4;1.4;;;;;;;;;;;;;
2020/08/02 13:20:44;;;;;;;2.4;1.4;;;;;;;;;;;;;
2020/08/02 13:23:09;;;;;;;1.8;1.3;;;;;;;;;;;;;
2020/08/02 13:25:35;;;;;;;2.4;1.3;;;;;;;;;;;;;
2020/08/02 13:28:00;;;;;;;1.7;1.5;;;;;;;;;;;;;
2020/08/02 13:30:26;;;;;;;2.2;1.7;;;;;;;;;;;;;
2020/08/02 13:32:51;;;;;;;2.7;1.7;;;;;;;;;;;;;
2020/08/02 13:35:16;;;;;;;2.2;1.5;;;;;;;;;;;;;
2020/08/02 13:37:41;;;;;;;2.5;1.7;;;;;;;;;;;;;
2020/08/02 13:40:06;;;;;;;2.6;1.7;;;;;;;;;;;;;
2020/08/02 13:42:32;;;;;;;2.4;1.8;;;;;;;;;;;;;
2020/08/02 13:44:57;;;;;;;3.4;1.9;;;;;;;;;;;;;
2020/08/02 13:47:23;;;;;;;3.2;1.7;;;;;;;;;;;;;
2020/08/02 13:49:48;;;;;;;5.9;1.9;;;;;;;;;;;;;
2020/08/02 13:52:14;;;;;;;2.1;1.5;;;;;;;;;;;;;
2020/08/02 13:54:39;;;;;;;3.2;1.8;;;;;;;;;;;;;
2020/08/02 13:57:05;;;;;;;3.1;1.6;;;;;;;;;;;;;
2020/08/02 13:59:30;;;;;;;3.1;1.7;;;;;;;;;;;;;
2020/08/02 14:01:55;;;;;;;2.2;1.7;;;;;;;;;;;;;
2020/08/02 14:04:23;;;;;;;2.5;1.8;;;;;;;;;;;;;
2020/08/02 14:06:47;;;;;;;2.9;1.6;;;;;;;;;;;;;
2020/08/02 14:09:12;;;;;;;2.7;1.8;;;;;;;;;;;;;
2020/08/02 14:11:44;;;;;;;3.5;2.1;;;;;;;;;;;;;
2020/08/02 14:14:02;;;;;;;3.6;2.2;;;;;;;;;;;;;
2020/08/02 14:16:27;;;;;;;3.8;2.1;;;;;;;;;;;;;
2020/08/02 14:18:52;;;;;;;3.1;2;;;;;;;;;;;;;
2020/08/02 14:21:17;;;;;;;3.6;2.3;;;;;;;;;;;;;
2020/08/02 14:23:42;;;;;;;6;2.2;;;;;;;;;;;;;
2020/08/02 14:26:11;;;;;;;3.3;2.1;;;;;;;;;;;;;
2020/08/02 14:28:36;;;;;;;2.9;2.1;;;;;;;;;;;;;
2020/08/02 14:31:01;;;;;;;4;2.4;;;;;;;;;;;;;
2020/08/02 14:38:16;;;;;;;3.1;2.4;;;;;;;;;;;;;
2020/08/02 14:40:42;;;;;;;5.4;2.4;;;;;;;;;;;;;
2020/08/02 14:43:07;;;;;;;4.7;2.2;;;;;;;;;;;;;
2020/08/02 14:45:32;;;;;;;4;2.4;;;;;;;;;;;;;
2020/08/02 14:47:58;;;;;;;3.3;2.5;;;;;;;;;;;;;
2020/08/02 14:50:24;;;;;;;4.4;2.4;;;;;;;;;;;;;
2020/08/02 14:52:49;;;;;;;4.7;2.8;;;;;;;;;;;;;
2020/08/02 14:55:14;;;;;;;4.3;2.7;;;;;;;;;;;;;
2020/08/02 14:57:39;;;;;;;3.3;2.4;;;;;;;;;;;;;
2020/08/02 15:00:09;;;;;;;4.1;2.7;;;;;;;;;;;;;
2020/08/02 15:02:29;;;;;;;7.5;2.8;;;;;;;;;;;;;
2020/08/02 15:04:55;;;;;;;4.7;3;;;;;;;;;;;;;
2020/08/02 15:07:20;;;;;;;3.7;2.7;;;;;;;;;;;;;
2020/08/02 15:09:45;;;;;;;4.7;3;;;;;;;;;;;;;
2020/08/02 15:12:10;;;;;;;4.1;2.8;;;;;;;;;;;;;
2020/08/02 15:14:35;;;;;;;6.3;3;;;;;;;;;;;;;
2020/08/02 15:17:00;;;;;;;4.6;2.9;;;;;;;;;;;;;
2020/08/02 15:19:25;;;;;;;5.8;3.5;;;;;;;;;;;;;
2020/08/02 15:21:51;;;;;;;8.2;3.9;;;;;;;;;;;;;
2020/08/02 15:24:16;;;;;;;10;4.5;;;;;;;;;;;;;
2020/08/02 15:26:41;;;;;;;9;4.3;;;;;;;;;;;;;
2020/08/02 15:29:07;;;;;;;7.3;4.2;;;;;;;;;;;;;
2020/08/02 15:31:32;;;;;;;5.7;4;;;;;;;;;;;;;
2020/08/02 15:33:57;;;;;;;8.1;4.6;;;;;;;;;;;;;
2020/08/02 15:36:22;;;;;;;8.9;4.5;;;;;;;;;;;;;
2020/08/02 15:38:47;;;;;;;12.1;4.7;;;;;;;;;;;;;
2020/08/02 15:41:12;;;;;;;8.3;4.7;;;;;;;;;;;;;
2020/08/02 15:43:38;;;;;;;7.8;4.5;;;;;;;;;;;;;
2020/08/02 15:46:03;;;;;;;9.8;5;;;;;;;;;;;;;
2020/08/02 15:48:28;;;;;;;5.9;4.1;;;;;;;;;;;;;
2020/08/02 15:50:54;;;;;;;7.1;4.2;;;;;;;;;;;;;
2020/08/02 15:53:19;;;;;;;6.6;4.4;;;;;;;;;;;;;
2020/08/02 15:55:44;;;;;;;6.8;4.2;;;;;;;;;;;;;
2020/08/02 15:58:09;;;;;;;5.8;4.2;;;;;;;;;;;;;
2020/08/02 16:00:37;;;;;;;6.4;4.1;;;;;;;;;;;;;
2020/08/02 16:03:03;;;;;;;7.6;4.2;;;;;;;;;;;;;
2020/08/02 16:05:28;;;;;;;4.7;3.7;;;;;;;;;;;;;
2020/08/02 16:07:54;;;;;;;5.9;4;;;;;;;;;;;;;
2020/08/02 16:10:20;;;;;;;7.2;4.5;;;;;;;;;;;;;
2020/08/02 16:12:45;;;;;;;6.4;4.1;;;;;;;;;;;;;
2020/08/02 16:15:11;;;;;;;7.1;4.3;;;;;;;;;;;;;
2020/08/02 16:17:36;;;;;;;6.4;4.5;;;;;;;;;;;;;
2020/08/02 16:20:02;;;;;;;6.1;4.7;;;;;;;;;;;;;
2020/08/02 16:22:27;;;;;;;6.8;4.6;;;;;;;;;;;;;
2020/08/02 16:24:52;;;;;;;6.2;4.7;;;;;;;;;;;;;
2020/08/02 16:27:17;;;;;;;6.1;4.7;;;;;;;;;;;;;
2020/08/02 16:29:42;;;;;;;6.8;4.8;;;;;;;;;;;;;
2020/08/02 16:32:09;;;;;;;9.3;5.6;;;;;;;;;;;;;
2020/08/02 16:34:34;;;;;;;6.2;4.9;;;;;;;;;;;;;
2020/08/02 16:36:59;;;;;;;8.7;6.4;;;;;;;;;;;;;
2020/08/02 16:39:24;;;;;;;7.2;5.3;;;;;;;;;;;;;
2020/08/02 16:41:50;;;;;;;6.2;4.7;;;;;;;;;;;;;
2020/08/02 16:44:15;;;;;;;8.1;4.3;;;;;;;;;;;;;
2020/08/02 16:46:40;;;;;;;8.8;4.7;;;;;;;;;;;;;
2020/08/02 16:49:05;;;;;;;7.5;4.6;;;;;;;;;;;;;
2020/08/02 16:51:30;;;;;;;9.4;4.8;;;;;;;;;;;;;
2020/08/02 16:53:56;;;;;;;7.7;4.9;;;;;;;;;;;;;
2020/08/02 16:56:21;;;;;;;8.2;4.5;;;;;;;;;;;;;
2020/08/02 16:58:46;;;;;;;7.1;4.5;;;;;;;;;;;;;
2020/08/02 17:01:11;;;;;;;8.3;4.6;;;;;;;;;;;;;
2020/08/02 17:03:36;;;;;;;10.3;5.2;;;;;;;;;;;;;
2020/08/02 17:06:01;;;;;;;8;4.9;;;;;;;;;;;;;
2020/08/02 17:08:27;;;;;;;10.9;5.2;;;;;;;;;;;;;
2020/08/02 17:10:53;;;;;;;7.5;4.4;;;;;;;;;;;;;
2020/08/02 17:13:18;;;;;;;10;4.8;;;;;;;;;;;;;
2020/08/02 17:15:43;;;;;;;7.3;4.8;;;;;;;;;;;;;
2020/08/02 17:18:08;;;;;;;7;4.9;;;;;;;;;;;;;
2020/08/02 17:20:34;;;;;;;6.4;4.4;;;;;;;;;;;;;
2020/08/02 17:22:59;;;;;;;7.9;4.3;;;;;;;;;;;;;
2020/08/02 17:25:24;;;;;;;7.6;4.5;;;;;;;;;;;;;
2020/08/02 17:27:49;;;;;;;4.7;3.7;;;;;;;;;;;;;
2020/08/02 17:30:14;;;;;;;2.7;1.9;;;;;;;;;;;;;
2020/08/02 17:32:39;;;;;;;3;1.7;;;;;;;;;;;;;
2020/08/02 17:35:04;;;;;;;2.4;1.7;;;;;;;;;;;;;
2020/08/02 17:37:30;;;;;;;4.8;1.8;;;;;;;;;;;;;
2020/08/02 17:39:55;;;;;;;3.7;1.9;;;;;;;;;;;;;
2020/08/02 17:42:20;;;;;;;3.3;2;;;;;;;;;;;;;
2020/08/02 17:44:45;;;;;;;3.7;1.7;;;;;;;;;;;;;
2020/08/02 17:47:10;;;;;;;2.1;1.7;;;;;;;;;;;;;
2020/08/02 17:49:35;;;;;;;3.8;2;;;;;;;;;;;;;
2020/08/02 17:52:02;;;;;;;2.8;1.8;;;;;;;;;;;;;
2020/08/02 17:54:27;;;;;;;3.4;1.9;;;;;;;;;;;;;
2020/08/02 17:56:53;;;;;;;5.3;1.7;;;;;;;;;;;;;
2020/08/02 17:59:18;;;;;;;2.8;1.9;;;;;;;;;;;;;
2020/08/02 18:01:43;;;;;;;3.4;1.8;;;;;;;;;;;;;
2020/08/02 18:04:08;;;;;;;2.6;1.8;;;;;;;;;;;;;
2020/08/02 18:06:34;;;;;;;2.2;1.8;;;;;;;;;;;;;
2020/08/02 18:08:59;;;;;;;3.8;2.2;;;;;;;;;;;;;
2020/08/02 18:11:27;;;;;;;2.4;1.9;;;;;;;;;;;;;
2020/08/02 18:13:52;;;;;;;3.6;2;;;;;;;;;;;;;
2020/08/02 18:16:17;;;;;;;3;2.1;;;;;;;;;;;;;
2020/08/02 18:18:42;;;;;;;3.5;2.1;;;;;;;;;;;;;
2020/08/02 18:21:08;;;;;;;4.2;2.1;;;;;;;;;;;;;
2020/08/02 18:23:33;;;;;;;2.9;2.2;;;;;;;;;;;;;
2020/08/02 18:25:59;;;;;;;5.3;2.4;;;;;;;;;;;;;
2020/08/02 18:28:24;;;;;;;3.8;2.6;;;;;;;;;;;;;
2020/08/02 18:30:52;;;;;;;5.4;2.5;;;;;;;;;;;;;
2020/08/02 18:33:17;;;;;;;5.6;2.5;;;;;;;;;;;;;
2020/08/02 18:35:43;;;;;;;3.4;2.7;;;;;;;;;;;;;
2020/08/02 18:38:08;;;;;;;4.6;2.6;;;;;;;;;;;;;
2020/08/02 18:40:40;;;;;;;6.1;2.4;;;;;;;;;;;;;
2020/08/02 18:43:05;;;;;;;4.4;2.6;;;;;;;;;;;;;
2020/08/02 18:45:33;;;;;;;3.5;2.6;;;;;;;;;;;;;
2020/08/02 18:47:58;;;;;;;4.6;2.8;;;;;;;;;;;;;
2020/08/02 18:50:23;;;;;;;4;2.5;;;;;;;;;;;;;
2020/08/02 18:52:48;;;;;;;2.9;2.3;;;;;;;;;;;;;
2020/08/02 18:55:14;;;;;;;4.2;2.5;;;;;;;;;;;;;
2020/08/02 18:57:39;;;;;;;3.3;2.3;;;;;;;;;;;;;
2020/08/02 19:00:04;;;;;;;6.3;2.8;;;;;;;;;;;;;
2020/08/02 19:02:33;;;;;;;5.5;2.7;;;;;;;;;;;;;
2020/08/02 19:04:58;;;;;;;3.8;2.3;;;;;;;;;;;;;
2020/08/02 19:07:24;;;;;;;5.6;2.7;;;;;;;;;;;;;
2020/08/02 19:09:49;;;;;;;4.6;2.6;;;;;;;;;;;;;
2020/08/02 19:14:06;;;;;;;4.6;2.7;;;;;;;;;;;;;
2020/08/02 19:14:41;;;;;;;5;2.6;;;;;;;;;;;;;
2020/08/02 19:17:08;;;;;;;5.4;2.9;;;;;;;;;;;;;
2020/08/02 19:19:33;;;;;;;4.9;3;;;;;;;;;;;;;
2020/08/02 19:21:58;;;;;;;6.1;3.2;;;;;;;;;;;;;
2020/08/02 19:24:23;;;;;;;3.1;2.7;;;;;;;;;;;;;
2020/08/02 19:26:48;;;;;;;3.5;2.7;;;;;;;;;;;;;
2020/08/02 19:29:13;;;;;;;3.5;2.6;;;;;;;;;;;;;
2020/08/02 19:31:39;;;;;;;4.7;2.8;;;;;;;;;;;;;
2020/08/02 19:34:04;;;;;;;4.3;2.9;;;;;;;;;;;;;
2020/08/02 19:36:29;;;;;;;4.2;2.8;;;;;;;;;;;;;
2020/08/02 19:38:54;;;;;;;4.2;2.7;;;;;;;;;;;;;
2020/08/02 19:41:25;;;;;;;5.6;2.8;;;;;;;;;;;;;
2020/08/02 19:43:52;;;;;;;6;2.8;;;;;;;;;;;;;
2020/08/02 19:46:17;;;;;;;6.5;2.8;;;;;;;;;;;;;
2020/08/02 19:48:43;;;;;;;3.6;2.7;;;;;;;;;;;;;
2020/08/02 19:51:11;;;;;;;4.2;2.9;;;;;;;;;;;;;
2020/08/02 19:53:34;;;;;;;3.8;2.8;;;;;;;;;;;;;
2020/08/02 19:55:59;;;;;;;4.3;2.9;;;;;;;;;;;;;
2020/08/02 19:58:28;;;;;;;3.8;2.9;;;;;;;;;;;;;
2020/08/02 20:00:55;;;;;;;4;2.8;;;;;;;;;;;;;
2020/08/02 20:03:22;;;;;;;3.9;2.6;;;;;;;;;;;;;
2020/08/02 20:05:46;;;;;;;5.6;3;;;;;;;;;;;;;
2020/08/02 20:08:12;;;;;;;5.7;2.8;;;;;;;;;;;;;
2020/08/02 20:10:37;;;;;;;7;3;;;;;;;;;;;;;
2020/08/02 20:13:02;;;;;;;5;3;;;;;;;;;;;;;
2020/08/02 20:15:29;;;;;;;4.8;2.7;;;;;;;;;;;;;
2020/08/02 20:17:54;;;;;;;5.1;3.2;;;;;;;;;;;;;
2020/08/02 20:20:19;;;;;;;3.6;2.9;;;;;;;;;;;;;
2020/08/02 20:22:46;;;;;;;4.5;3.4;;;;;;;;;;;;;
2020/08/02 20:25:11;;;;;;;5.7;3.7;;;;;;;;;;;;;
2020/08/02 20:27:37;;;;;;;3.9;3;;;;;;;;;;;;;
2020/08/02 20:30:02;;;;;;;3.9;3.1;;;;;;;;;;;;;
2020/08/02 20:32:27;;;;;;;5.9;3.4;;;;;;;;;;;;;
2020/08/02 20:34:53;;;;;;;5.2;3.1;;;;;;;;;;;;;
2020/08/02 20:37:18;;;;;;;3.8;2.7;;;;;;;;;;;;;
2020/08/02 20:39:43;;;;;;;5.4;3.1;;;;;;;;;;;;;
2020/08/02 20:42:10;;;;;;;4.3;3.1;;;;;;;;;;;;;
2020/08/02 20:44:37;;;;;;;6.1;3;;;;;;;;;;;;;
2020/08/02 20:47:02;;;;;;;3.3;3;;;;;;;;;;;;;